createdAt,value
2018-04-24T00:01:36.062Z,97.70
2018-04-24T00:04:03.013Z,97.90
2018-04-24T00:06:30.164Z,98.10
2018-04-24T00:08:57.007Z,98.10
2018-04-24T00:11:23.693Z,98.20
2018-04-24T00:13:51.304Z,98.10
2018-04-24T00:16:18.257Z,98.10
2018-04-24T00:18:45.193Z,98.10
2018-04-24T00:21:12.036Z,98.10
2018-04-24T00:23:38.659Z,98.00
2018-04-24T00:26:05.413Z,98.00
2018-04-24T00:28:32.270Z,98.00
2018-04-24T00:30:59.200Z,98.00
2018-04-24T00:33:25.936Z,98.00
2018-04-24T00:35:52.885Z,97.90
2018-04-24T00:38:19.932Z,98.00
2018-04-24T00:40:46.771Z,98.10
2018-04-24T00:43:13.618Z,98.00
2018-04-24T00:45:40.561Z,98.10
2018-04-24T00:48:07.507Z,98.20
2018-04-24T00:50:34.350Z,98.20
2018-04-24T00:53:01.153Z,98.20
2018-04-24T00:55:28.341Z,98.10
2018-04-24T00:57:55.081Z,98.00
2018-04-24T01:00:21.923Z,97.90
2018-04-24T01:02:49.376Z,97.80
2018-04-24T01:05:16.124Z,97.70
2018-04-24T01:07:42.792Z,97.60
2018-04-24T01:10:09.601Z,97.50
2018-04-24T01:12:36.321Z,97.60
2018-04-24T01:15:03.284Z,97.60
2018-04-24T01:17:30.024Z,97.60
2018-04-24T01:19:56.864Z,97.70
2018-04-24T01:22:23.617Z,97.70
2018-04-24T01:24:50.452Z,97.70
2018-04-24T01:27:17.293Z,97.70
2018-04-24T01:29:44.133Z,97.70
2018-04-24T01:32:10.837Z,97.60
2018-04-24T01:34:38.249Z,97.50
2018-04-24T01:37:04.965Z,97.60
2018-04-24T01:39:31.611Z,97.60
2018-04-24T01:41:58.450Z,97.60
2018-04-24T01:44:25.285Z,97.50
2018-04-24T01:46:51.976Z,97.40
2018-04-24T01:49:18.770Z,97.60
2018-04-24T01:51:45.465Z,97.60
2018-04-24T01:54:12.891Z,97.60
2018-04-24T01:56:39.810Z,97.60
2018-04-24T01:59:06.444Z,97.50
2018-04-24T02:01:33.173Z,97.40
2018-04-24T02:04:00.123Z,97.30
2018-04-24T02:06:26.787Z,97.20
2018-04-24T02:08:53.611Z,97.10
2018-04-24T02:11:20.350Z,97.00
2018-04-24T02:13:47.296Z,97.00
2018-04-24T02:16:14.240Z,97.00
2018-04-24T02:18:40.976Z,97.00
2018-04-24T02:21:07.715Z,97.00
2018-04-24T02:23:34.455Z,96.90
2018-04-24T02:26:01.205Z,96.90
2018-04-24T02:28:27.877Z,96.90
2018-04-24T02:30:54.658Z,96.90
2018-04-24T02:33:21.522Z,96.90
2018-04-24T02:35:48.383Z,96.90
2018-04-24T02:38:15.206Z,96.90
2018-04-24T02:40:41.876Z,96.90
2018-04-24T02:43:08.624Z,96.90
2018-04-24T02:45:35.426Z,96.90
2018-04-24T02:48:02.269Z,96.50
2018-04-24T02:50:29.213Z,97.00
2018-04-24T02:52:56.055Z,97.00
2018-04-24T02:55:22.686Z,97.00
2018-04-24T02:57:49.637Z,97.00
2018-04-24T03:00:16.787Z,97.20
2018-04-24T03:02:43.526Z,97.20
2018-04-24T03:05:10.365Z,97.30
2018-04-24T03:07:37.213Z,97.20
2018-04-24T03:10:04.053Z,97.40
2018-04-24T03:12:30.785Z,97.30
2018-04-24T03:14:57.529Z,97.30
2018-04-24T03:17:25.809Z,97.30
2018-04-24T03:19:52.517Z,97.40
2018-04-24T03:22:20.006Z,97.00
2018-04-24T03:24:46.652Z,97.10
2018-04-24T03:27:13.349Z,97.00
2018-04-24T03:29:40.840Z,97.00
2018-04-24T03:32:07.580Z,97.10
2018-04-24T03:34:34.289Z,97.00
2018-04-24T03:37:01.001Z,97.00
2018-04-24T03:39:27.773Z,97.00
2018-04-24T03:41:55.257Z,97.00
2018-04-24T03:44:22.321Z,97.00
2018-04-24T03:46:48.951Z,97.00
2018-04-24T03:49:22.921Z,97.00
2018-04-24T03:51:50.409Z,97.10
2018-04-24T03:54:17.148Z,97.10
2018-04-24T03:56:44.000Z,97.20
2018-04-24T03:59:10.644Z,97.30
2018-04-24T04:01:37.364Z,97.30
2018-04-24T04:04:04.215Z,97.20
2018-04-24T04:06:31.159Z,97.30
2018-04-24T04:08:57.998Z,97.60
2018-04-24T04:11:24.701Z,97.40
2018-04-24T04:13:51.480Z,97.40
2018-04-24T04:16:18.320Z,97.50
2018-04-24T04:18:57.338Z,97.40
2018-04-24T04:21:36.274Z,97.40
2018-04-24T04:24:16.120Z,97.40
2018-04-24T04:26:42.764Z,97.30
2018-04-24T04:29:09.601Z,97.30
2018-04-24T04:31:36.443Z,97.20
2018-04-24T04:34:03.665Z,97.20
2018-04-24T04:36:31.153Z,97.10
2018-04-24T04:38:57.782Z,97.20
2018-04-24T04:41:24.607Z,97.00
2018-04-24T04:43:51.373Z,97.00
2018-04-24T04:46:18.210Z,96.90
2018-04-24T04:48:45.261Z,96.80
2018-04-24T04:51:12.106Z,96.70
2018-04-24T04:53:38.947Z,96.70
2018-04-24T04:56:06.139Z,96.70
2018-04-24T04:58:33.655Z,96.60
2018-04-24T05:01:00.392Z,96.60
2018-04-24T05:03:27.550Z,96.50
2018-04-24T05:05:54.383Z,96.50
2018-04-24T05:08:21.124Z,96.40
2018-04-24T05:10:47.874Z,96.30
2018-04-24T05:13:14.561Z,96.30
2018-04-24T05:15:42.059Z,96.00
2018-04-24T05:18:09.105Z,96.00
2018-04-24T05:20:35.779Z,95.90
2018-04-24T05:23:02.441Z,95.70
2018-04-24T05:25:29.227Z,95.60
2018-04-24T05:27:55.967Z,95.60
2018-04-24T05:30:22.700Z,95.50
2018-04-24T05:32:49.348Z,95.50
2018-04-24T05:35:15.980Z,95.50
2018-04-24T05:37:42.928Z,95.40
2018-04-24T05:40:09.868Z,95.40
2018-04-24T05:42:36.616Z,95.30
2018-04-24T05:45:03.421Z,95.30
2018-04-24T05:47:30.884Z,95.60
2018-04-24T05:49:58.362Z,95.10
2018-04-24T05:52:25.254Z,95.10
2018-04-24T05:54:51.902Z,95.00
2018-04-24T05:57:19.406Z,95.00
2018-04-24T05:59:46.351Z,95.00
2018-04-24T06:02:13.091Z,94.90
2018-04-24T06:04:39.777Z,94.90
2018-04-24T06:07:06.572Z,94.90
2018-04-24T06:09:33.311Z,94.70
2018-04-24T06:12:00.255Z,94.80
2018-04-24T06:14:27.203Z,94.80
2018-04-24T06:16:54.045Z,94.90
2018-04-24T06:19:20.783Z,94.90
2018-04-24T06:21:47.522Z,94.80
2018-04-24T06:24:14.262Z,94.90
2018-04-24T06:26:48.175Z,94.80
2018-04-24T06:29:14.818Z,94.80
2018-04-24T06:31:41.612Z,94.70
2018-04-24T06:34:09.107Z,94.60
2018-04-24T06:36:35.845Z,94.70
2018-04-24T06:39:02.787Z,94.70
2018-04-24T06:41:31.028Z,94.60
2018-04-24T06:43:58.752Z,94.50
2018-04-24T06:46:25.569Z,94.50
2018-04-24T06:48:52.309Z,94.50
2018-04-24T06:51:18.993Z,94.50
2018-04-24T06:53:45.669Z,94.50
2018-04-24T06:56:12.428Z,94.40
2018-04-24T06:58:39.167Z,94.50
2018-04-24T07:01:06.319Z,94.50
2018-04-24T07:03:32.952Z,94.40
2018-04-24T07:05:59.695Z,94.30
2018-04-24T07:08:26.496Z,94.20
2018-04-24T07:10:53.153Z,94.20
2018-04-24T07:13:20.012Z,94.10
2018-04-24T07:15:46.858Z,93.90
2018-04-24T07:18:14.008Z,93.80
2018-04-24T07:20:40.653Z,93.60
2018-04-24T07:23:07.385Z,93.70
2018-04-24T07:25:34.104Z,93.70
2018-04-24T07:28:00.865Z,93.60
2018-04-24T07:30:27.610Z,93.60
2018-04-24T07:32:54.312Z,93.50
2018-04-24T07:35:20.916Z,93.60
2018-04-24T07:37:47.724Z,93.60
2018-04-24T07:40:14.461Z,93.50
2018-04-24T07:42:41.203Z,93.50
2018-04-24T07:45:07.943Z,93.50
2018-04-24T07:47:34.786Z,93.80
2018-04-24T07:50:01.627Z,93.90
2018-04-24T07:52:28.363Z,93.90
2018-04-24T07:54:55.516Z,94.00
2018-04-24T07:57:22.255Z,94.20
2018-04-24T07:59:48.888Z,94.10
2018-04-24T08:02:15.735Z,94.00
2018-04-24T08:04:42.445Z,93.90
2018-04-24T08:07:09.216Z,93.90
2018-04-24T08:09:35.925Z,93.80
2018-04-24T08:12:02.605Z,93.80
2018-04-24T08:14:29.277Z,93.80
2018-04-24T08:16:56.070Z,93.90
2018-04-24T08:19:22.917Z,93.60
2018-04-24T08:21:49.753Z,93.60
2018-04-24T08:24:16.497Z,93.50
2018-04-24T08:26:43.193Z,93.40
2018-04-24T08:29:09.769Z,93.30
2018-04-24T08:31:36.457Z,93.40
2018-04-24T08:34:03.252Z,93.50
2018-04-24T08:36:30.094Z,93.40
2018-04-24T08:38:56.888Z,93.50
2018-04-24T08:41:23.537Z,93.50
2018-04-24T08:43:50.163Z,93.70
2018-04-24T08:46:17.056Z,93.80
2018-04-24T08:48:43.794Z,93.80
2018-04-24T08:51:10.445Z,94.10
2018-04-24T08:53:37.246Z,94.30
2018-04-24T08:56:04.014Z,94.40
2018-04-24T08:58:30.958Z,94.60
2018-04-24T09:00:57.702Z,94.80
2018-04-24T09:03:24.332Z,95.00
2018-04-24T09:05:51.177Z,95.20
2018-04-24T09:08:17.917Z,95.60
2018-04-24T09:10:44.657Z,95.40
2018-04-24T09:13:11.365Z,95.40
2018-04-24T09:15:38.341Z,95.40
2018-04-24T09:18:05.004Z,95.20
2018-04-24T09:20:31.819Z,95.30
2018-04-24T09:22:58.560Z,95.30
2018-04-24T09:25:25.219Z,95.20
2018-04-24T09:27:52.141Z,95.10
2018-04-24T09:30:18.879Z,95.00
2018-04-24T09:32:45.621Z,95.10
2018-04-24T09:35:18.505Z,95.30
2018-04-24T09:37:45.246Z,95.30
2018-04-24T09:40:12.089Z,95.30
2018-04-24T09:42:38.828Z,95.30
2018-04-24T09:45:05.537Z,95.40
2018-04-24T09:47:32.919Z,95.50
2018-04-24T09:49:59.662Z,95.90
2018-04-24T09:52:26.504Z,95.40
2018-04-24T09:54:53.129Z,95.40
2018-04-24T09:57:19.878Z,95.40
2018-04-24T09:59:46.622Z,95.40
2018-04-24T10:02:13.442Z,95.50
2018-04-24T10:04:40.305Z,95.30
2018-04-24T10:07:07.047Z,95.40
2018-04-24T10:09:33.990Z,95.30
2018-04-24T10:12:00.805Z,95.40
2018-04-24T10:14:28.287Z,95.30
2018-04-24T10:16:55.240Z,95.30
2018-04-24T10:19:21.978Z,95.20
2018-04-24T10:21:50.976Z,95.20
2018-04-24T10:24:17.661Z,95.00
2018-04-24T10:26:45.071Z,94.90
2018-04-24T10:29:11.803Z,94.90
2018-04-24T10:31:38.521Z,94.70
2018-04-24T10:34:05.998Z,94.50
2018-04-24T10:36:32.626Z,94.50
2018-04-24T10:38:59.375Z,94.50
2018-04-24T10:41:26.117Z,94.50
2018-04-24T10:43:52.991Z,94.40
2018-04-24T10:46:19.800Z,94.00
2018-04-24T10:48:46.744Z,93.70
2018-04-24T10:51:13.410Z,93.60
2018-04-24T10:53:40.429Z,93.70
2018-04-24T10:56:07.375Z,93.50
2018-04-24T10:58:33.998Z,93.50
2018-04-24T11:01:00.750Z,93.50
2018-04-24T11:03:27.494Z,93.30
2018-04-24T11:05:54.223Z,93.40
2018-04-24T11:08:20.942Z,93.40
2018-04-24T11:10:48.525Z,93.00
2018-04-24T11:13:15.266Z,92.90
2018-04-24T11:15:42.214Z,93.10
2018-04-24T11:18:08.954Z,92.90
2018-04-24T11:20:35.704Z,92.70
2018-04-24T11:23:09.398Z,92.40
2018-04-24T11:25:36.240Z,92.20
2018-04-24T11:28:03.054Z,91.70
2018-04-24T11:30:30.627Z,91.40
2018-04-24T11:32:57.382Z,91.40
2018-04-24T11:35:24.125Z,91.30
2018-04-24T11:37:50.793Z,91.10
2018-04-24T11:40:17.577Z,90.90
2018-04-24T11:42:45.158Z,90.60
2018-04-24T11:45:11.888Z,90.50
2018-04-24T11:47:39.555Z,90.70
2018-04-24T11:50:06.299Z,90.40
2018-04-24T11:52:33.154Z,90.60
2018-04-24T11:54:59.884Z,90.50
2018-04-24T11:57:26.513Z,90.70
2018-04-24T11:59:53.774Z,90.90
2018-04-24T12:02:20.485Z,91.00
2018-04-24T12:04:47.257Z,91.20
2018-04-24T12:07:14.197Z,91.10
2018-04-24T12:09:41.041Z,91.20
2018-04-24T12:12:07.878Z,91.30
2018-04-24T12:14:34.724Z,91.50
2018-04-24T12:17:08.632Z,91.50
2018-04-24T12:19:35.371Z,91.50
2018-04-24T12:22:02.181Z,91.60
2018-04-24T12:24:29.678Z,90.90
2018-04-24T12:26:56.407Z,90.90
2018-04-24T12:29:23.060Z,90.50
2018-04-24T12:31:49.726Z,90.30
2018-04-24T12:34:16.642Z,90.10
2018-04-24T12:36:43.578Z,89.90
2018-04-24T12:39:10.316Z,89.50
2018-04-24T12:41:37.056Z,89.60
2018-04-24T12:44:03.899Z,89.80
2018-04-24T12:46:30.742Z,89.50
2018-04-24T12:48:57.475Z,89.50
2018-04-24T12:51:24.221Z,89.40
2018-04-24T12:53:51.065Z,89.80
2018-04-24T12:56:17.738Z,89.90
2018-04-24T12:58:44.452Z,90.00
2018-04-24T13:01:11.282Z,89.70
2018-04-24T13:03:38.019Z,88.90
2018-04-24T13:06:04.674Z,88.60
2018-04-24T13:08:31.344Z,88.20
2018-04-24T13:10:58.140Z,88.20
2018-04-24T13:13:24.983Z,88.30
2018-04-24T13:15:51.826Z,88.20
2018-04-24T13:18:18.537Z,88.20
2018-04-24T13:20:45.941Z,87.80
2018-04-24T13:23:12.762Z,87.80
2018-04-24T13:25:39.649Z,87.70
2018-04-24T13:28:06.447Z,87.60
2018-04-24T13:30:33.478Z,87.60
2018-04-24T13:33:00.861Z,87.90
2018-04-24T13:35:27.589Z,87.80
2018-04-24T13:37:54.431Z,87.60
2018-04-24T13:40:21.375Z,87.90
2018-04-24T13:42:48.027Z,88.10
2018-04-24T13:45:14.752Z,88.40
2018-04-24T13:47:41.492Z,88.60
2018-04-24T13:50:08.233Z,88.80
2018-04-24T13:52:34.972Z,89.10
2018-04-24T13:55:01.714Z,89.20
2018-04-24T13:57:28.557Z,89.10
2018-04-24T13:59:55.290Z,89.50
2018-04-24T14:02:22.138Z,89.50
2018-04-24T14:04:48.870Z,89.30
2018-04-24T14:07:15.592Z,89.40
2018-04-24T14:09:42.359Z,89.70
2018-04-24T14:12:09.102Z,90.00
2018-04-24T14:14:35.831Z,90.00
2018-04-24T14:17:02.783Z,90.00
2018-04-24T14:19:29.869Z,90.00
2018-04-24T14:21:56.671Z,90.00
2018-04-24T14:24:23.416Z,90.10
2018-04-24T14:26:50.253Z,90.00
2018-04-24T14:29:17.072Z,90.00
2018-04-24T14:31:43.730Z,90.00
2018-04-24T14:34:10.576Z,90.00
2018-04-24T14:36:37.316Z,90.20
2018-04-24T14:39:06.072Z,90.20
2018-04-24T14:41:33.560Z,90.10
2018-04-24T14:44:00.404Z,90.10
2018-04-24T14:46:27.256Z,90.10
2018-04-24T14:48:53.984Z,90.10
2018-04-24T14:51:20.724Z,90.10
2018-04-24T14:53:47.566Z,90.20
2018-04-24T14:56:14.306Z,90.30
2018-04-24T14:58:41.015Z,90.50
2018-04-24T15:01:08.413Z,90.70
2018-04-24T15:03:35.046Z,90.70
2018-04-24T15:06:01.688Z,90.80
2018-04-24T15:08:28.289Z,90.90
2018-04-24T15:10:54.928Z,90.90
2018-04-24T15:13:22.515Z,90.90
2018-04-24T15:15:49.244Z,90.90
2018-04-24T15:18:15.988Z,90.70
2018-04-24T15:20:42.695Z,90.50
2018-04-24T15:23:10.064Z,90.30
2018-04-24T15:25:36.716Z,90.30
2018-04-24T15:28:03.604Z,90.00
2018-04-24T15:30:30.405Z,89.70
2018-04-24T15:32:57.248Z,89.40
2018-04-24T15:35:24.188Z,89.10
2018-04-24T15:37:50.813Z,89.10
2018-04-24T15:40:17.571Z,89.20
2018-04-24T15:42:44.300Z,89.60
2018-04-24T15:45:11.048Z,89.80
2018-04-24T15:47:37.711Z,89.90
2018-04-24T15:50:04.527Z,90.00
2018-04-24T15:52:31.206Z,89.70
2018-04-24T15:54:58.009Z,89.40
2018-04-24T15:57:24.953Z,89.20
2018-04-24T15:59:51.690Z,88.90
2018-04-24T16:02:18.344Z,88.60
2018-04-24T16:04:45.168Z,88.60
2018-04-24T16:07:11.829Z,88.50
2018-04-24T16:09:38.444Z,88.30
2018-04-24T16:12:05.256Z,88.10
2018-04-24T16:14:32.745Z,87.80
2018-04-24T16:16:59.384Z,87.70
2018-04-24T16:19:26.314Z,88.20
2018-04-24T16:21:52.964Z,88.20
2018-04-24T16:24:19.676Z,88.40
2018-04-24T16:26:46.445Z,88.20
2018-04-24T16:29:13.593Z,88.30
2018-04-24T16:31:40.437Z,88.20
2018-04-24T16:34:07.586Z,88.50
2018-04-24T16:36:34.833Z,88.60
2018-04-24T16:39:01.682Z,89.00
2018-04-24T16:41:28.344Z,89.00
2018-04-24T16:43:55.139Z,89.20
2018-04-24T16:46:22.076Z,89.00
2018-04-24T16:48:48.842Z,89.20
2018-04-24T16:51:15.580Z,89.20
2018-04-24T16:53:42.324Z,89.20
2018-04-24T16:56:09.260Z,89.60
2018-04-24T16:58:35.836Z,89.80
2018-04-24T17:01:02.647Z,90.00
2018-04-24T17:03:29.387Z,90.20
2018-04-24T17:05:56.390Z,90.10
2018-04-24T17:08:23.274Z,90.20
2018-04-24T17:10:50.014Z,90.20
2018-04-24T17:13:16.701Z,90.30
2018-04-24T17:15:43.700Z,90.30
2018-04-24T17:18:10.543Z,90.30
2018-04-24T17:20:37.280Z,90.40
2018-04-24T17:23:03.988Z,90.50
2018-04-24T17:25:30.824Z,90.40
2018-04-24T17:27:57.418Z,90.40
2018-04-24T17:30:24.241Z,90.60
2018-04-24T17:32:50.977Z,90.50
2018-04-24T17:35:18.143Z,90.60
2018-04-24T17:37:44.930Z,90.80
2018-04-24T17:40:12.428Z,91.20
2018-04-24T17:42:39.370Z,90.90
2018-04-24T17:45:06.113Z,91.00
2018-04-24T17:47:32.957Z,91.10
2018-04-24T17:49:59.739Z,91.10
2018-04-24T17:52:26.437Z,91.10
2018-04-24T17:54:53.279Z,91.30
2018-04-24T17:57:19.901Z,91.30
2018-04-24T17:59:46.575Z,91.40
2018-04-24T18:02:13.503Z,91.40
2018-04-24T18:04:40.239Z,91.60
2018-04-24T18:07:07.491Z,91.70
2018-04-24T18:09:35.358Z,91.80
2018-04-24T18:12:02.029Z,91.90
2018-04-24T18:14:29.033Z,91.80
2018-04-24T18:16:55.888Z,92.00
2018-04-24T18:19:22.846Z,92.00
2018-04-24T18:21:49.568Z,92.10
2018-04-24T18:24:16.614Z,92.10
2018-04-24T18:26:43.288Z,92.60
2018-04-24T18:29:11.530Z,92.50
2018-04-24T18:31:38.470Z,92.60
2018-04-24T18:34:05.215Z,92.60
2018-04-24T18:36:32.163Z,92.60
2018-04-24T18:38:58.900Z,92.60
2018-04-24T18:41:25.842Z,92.70
2018-04-24T18:43:52.705Z,92.70
2018-04-24T18:46:19.729Z,92.70
2018-04-24T18:48:46.473Z,92.80
2018-04-24T18:51:13.626Z,92.80
2018-04-24T18:53:40.360Z,92.90
2018-04-24T18:56:07.579Z,92.90
2018-04-24T18:58:34.351Z,92.90
2018-04-24T19:01:01.603Z,92.90
2018-04-24T19:03:28.446Z,92.80
2018-04-24T19:05:55.910Z,92.90
2018-04-24T19:08:22.843Z,92.90
2018-04-24T19:10:49.587Z,92.90
2018-04-24T19:13:16.399Z,93.00
2018-04-24T19:15:43.475Z,92.90
2018-04-24T19:18:11.153Z,93.00
2018-04-24T19:20:38.287Z,93.00
2018-04-24T19:23:05.124Z,93.00
2018-04-24T19:25:38.116Z,93.00
2018-04-24T19:28:05.670Z,93.10
2018-04-24T19:30:32.415Z,93.00
2018-04-24T19:32:59.566Z,93.10
2018-04-24T19:35:26.273Z,93.10
2018-04-24T19:37:53.048Z,93.10
2018-04-24T19:40:25.945Z,93.10
2018-04-24T19:42:52.771Z,93.00
2018-04-24T19:45:20.037Z,93.00
2018-04-24T19:47:47.886Z,93.00
2018-04-24T19:50:17.393Z,93.10
2018-04-24T19:52:44.134Z,93.00
2018-04-24T19:55:16.911Z,93.10
2018-04-24T19:57:43.662Z,93.10
2018-04-24T20:00:10.804Z,93.20
2018-04-24T20:02:37.452Z,93.20
2018-04-24T20:05:04.285Z,93.30
2018-04-24T20:07:30.933Z,93.30
2018-04-24T20:09:57.556Z,93.30
2018-04-24T20:12:24.504Z,93.40
2018-04-24T20:14:51.201Z,93.40
2018-04-24T20:17:18.669Z,93.50
2018-04-24T20:19:46.255Z,93.60
2018-04-24T20:22:13.000Z,93.60
2018-04-24T20:24:39.739Z,93.60
2018-04-24T20:27:06.482Z,93.70
2018-04-24T20:29:33.833Z,93.80
2018-04-24T20:32:00.679Z,93.80
2018-04-24T20:34:27.310Z,93.80
2018-04-24T20:36:53.979Z,93.90
2018-04-24T20:39:20.894Z,93.90
2018-04-24T20:41:47.942Z,94.00
2018-04-24T20:44:14.584Z,93.90
2018-04-24T20:46:41.323Z,94.00
2018-04-24T20:49:08.370Z,94.10
2018-04-24T20:51:35.205Z,94.10
2018-04-24T20:54:02.050Z,94.20
2018-04-24T20:56:28.792Z,94.20
2018-04-24T20:58:55.448Z,94.30
2018-04-24T21:01:22.125Z,94.30
2018-04-24T21:03:48.766Z,94.50
2018-04-24T21:06:16.403Z,94.70
2018-04-24T21:08:43.319Z,94.50
2018-04-24T21:11:10.154Z,94.60
2018-04-24T21:13:36.957Z,94.90
2018-04-24T21:16:04.450Z,94.70
2018-04-24T21:18:31.600Z,94.70
2018-04-24T21:20:58.444Z,94.80
2018-04-24T21:23:25.288Z,94.80
2018-04-24T21:25:51.946Z,94.80
2018-04-24T21:28:18.617Z,94.80
2018-04-24T21:30:45.506Z,94.90
2018-04-24T21:33:12.344Z,95.00
2018-04-24T21:35:38.997Z,95.10
2018-04-24T21:38:05.827Z,95.30
2018-04-24T21:40:32.665Z,95.40
2018-04-24T21:42:59.518Z,95.60
2018-04-24T21:45:26.226Z,95.60
2018-04-24T21:47:52.900Z,95.70
2018-04-24T21:50:19.733Z,96.10
2018-04-24T21:52:46.674Z,95.90
2018-04-24T21:55:13.395Z,96.00
2018-04-24T21:57:40.156Z,96.00
2018-04-24T22:00:06.999Z,96.00
2018-04-24T22:02:33.808Z,96.00
2018-04-24T22:05:01.294Z,96.10
2018-04-24T22:07:27.948Z,96.10
2018-04-24T22:09:54.778Z,96.00
2018-04-24T22:12:21.518Z,96.00
2018-04-24T22:14:48.182Z,96.10
2018-04-24T22:17:14.844Z,96.20
2018-04-24T22:19:41.496Z,96.30
2018-04-24T22:22:08.477Z,96.40
2018-04-24T22:24:35.109Z,96.10
2018-04-24T22:27:01.757Z,96.50
2018-04-24T22:29:28.422Z,96.60
2018-04-24T22:31:55.231Z,96.60
2018-04-24T22:34:22.453Z,96.70
2018-04-24T22:36:49.222Z,96.80
2018-04-24T22:39:15.962Z,96.90
2018-04-24T22:41:42.911Z,97.00
2018-04-24T22:44:09.653Z,97.00
2018-04-24T22:46:36.316Z,97.10
2018-04-24T22:49:03.130Z,97.10
2018-04-24T22:51:29.756Z,97.20
2018-04-24T22:53:56.504Z,97.20
2018-04-24T22:56:23.350Z,97.30
2018-04-24T22:58:50.061Z,97.30
2018-04-24T23:01:17.867Z,97.30
2018-04-24T23:03:45.410Z,97.40
2018-04-24T23:06:12.070Z,97.40
2018-04-24T23:08:38.887Z,97.40
2018-04-24T23:11:17.919Z,97.40
2018-04-24T23:14:02.963Z,97.50
2018-04-24T23:16:49.802Z,97.50
2018-04-24T23:19:35.800Z,97.50
2018-04-24T23:25:09.824Z,97.50
2018-04-24T23:27:36.662Z,97.50
2018-04-24T23:30:03.505Z,97.50
2018-04-24T23:32:30.347Z,97.60
2018-04-24T23:34:57.292Z,97.50
2018-04-24T23:37:23.981Z,97.50
2018-04-24T23:39:51.629Z,97.30
2018-04-24T23:42:18.535Z,97.60
2018-04-24T23:44:45.377Z,97.50
2018-04-24T23:47:12.193Z,97.60
2018-04-24T23:49:38.961Z,97.60
2018-04-24T23:52:05.803Z,97.60
2018-04-24T23:54:32.746Z,97.70
2018-04-24T23:56:59.590Z,97.70
2018-04-24T23:59:26.436Z,97.70
